HKKI

Details ICAO HKKI (KIS)
Name KISUMU
Region Kenya
Timezone Africa/Nairobi (UTC+3.0)
Plans Departing 11
Arriving 21
Stats Elevation 3,796 ft / 1,157 m (AMSL)
Location -0.086139° 34.728892°
Runways 1
Magnetic Variation 1.276° E
Sunrise 2018-05-23 03:35:49 UTC / 2018-05-23 06:35:49 Local
Sunset 2018-05-23 15:42:41 UTC / 2018-05-23 18:42:41 Local
Advertisement - Login to hide

Runways

ID Width Length Bearing (true) Bearing (mag) Surface Threshold Offset Overrun Length
07 98 ft / 30 m 6,515 ft / 1,986 m 61.41° 60.13° Asphalt 0 ft / 0 m 350 ft / 107 m
25 98 ft / 30 m 6,515 ft / 1,986 m 241.41° 240.13° Asphalt 0 ft / 0 m 190 ft / 58 m

Map

Weather


0- 5 10 15 20 25 30 35+ Temperature / ° C

Clouds and Precipitation
Forecast for 2018-05-22 18:00 UTC. Updated 5 hours ago

Ground ~20,000 ft ~40,000 ft Winds

METAR

HKKI 222100Z 00000KT 9999 FEW020CB BKN080 19/18 Q1019

TAF

TAF HKKI 221700Z 2218/2318 11004KT 9999 FEW022CB BKN090 BECMG 2221/2223 03005KT BECMG 2306/2309 24008KT BECMG 2312/2315 24010KT -TSRA FEW022CB BKN080

Frequencies

Ground 121.60 MHz GND
Tower 118.80 MHz TWR
Warning: Do not use this data for real-world aviation or navigation. No guarantee of current accuracy is given.